createdAt,value
2017-09-16T00:00:18.890Z,10.2
2017-09-16T00:01:21.192Z,10.2
2017-09-16T00:02:23.601Z,10.2
2017-09-16T00:03:26.650Z,10.2
2017-09-16T00:04:29.145Z,10.3
2017-09-16T00:05:31.397Z,10.3
2017-09-16T00:06:33.766Z,10.4
2017-09-16T00:07:36.209Z,10.5
2017-09-16T00:08:38.562Z,10.6
2017-09-16T00:09:41.619Z,10.6
2017-09-16T00:10:44.222Z,10.7
2017-09-16T00:11:53.026Z,10.6
2017-09-16T00:12:55.389Z,10.7
2017-09-16T00:13:57.712Z,10.6
2017-09-16T00:15:00.116Z,10.7
2017-09-16T00:16:03.082Z,10.8
2017-09-16T00:17:05.344Z,10.7
2017-09-16T00:18:07.720Z,10.8
2017-09-16T00:19:10.081Z,10.7
2017-09-16T00:20:15.154Z,10.7
2017-09-16T00:21:17.487Z,10.7
2017-09-16T00:22:26.610Z,10.5
2017-09-16T00:23:29.610Z,10.4
2017-09-16T00:24:32.755Z,10.4
2017-09-16T00:25:35.324Z,10.3
2017-09-16T00:26:37.699Z,10.3
2017-09-16T00:27:39.992Z,10.3
2017-09-16T00:28:42.334Z,10.3
2017-09-16T00:29:45.695Z,10.3
2017-09-16T00:30:48.041Z,10.2
2017-09-16T00:31:50.409Z,10.3
2017-09-16T00:32:52.806Z,10.2
2017-09-16T00:33:55.043Z,10.3
2017-09-16T00:34:57.424Z,10.3
2017-09-16T00:35:59.812Z,10.2
2017-09-16T00:37:02.694Z,10.3
2017-09-16T00:38:05.071Z,10.2
2017-09-16T00:39:08.184Z,10.2
2017-09-16T00:40:10.490Z,10.3
2017-09-16T00:41:12.789Z,10.2
2017-09-16T00:42:15.162Z,10.3
2017-09-16T00:43:17.528Z,10.3
2017-09-16T00:44:19.836Z,10.4
2017-09-16T00:45:22.638Z,10.3
2017-09-16T00:46:24.939Z,10.3
2017-09-16T00:47:27.271Z,10.2
2017-09-16T00:48:29.514Z,10.2
2017-09-16T00:49:31.970Z,10.1
2017-09-16T00:50:34.161Z,10.1
2017-09-16T00:51:36.326Z,10.1
2017-09-16T00:52:41.783Z,10.2
2017-09-16T00:53:44.050Z,10.1
2017-09-16T00:54:46.317Z,10.0
2017-09-16T00:55:48.551Z,10.1
2017-09-16T00:56:50.807Z,10.1
2017-09-16T00:57:53.713Z,10.2
2017-09-16T00:58:56.084Z,10.1
2017-09-16T00:59:59.199Z,10.0
2017-09-16T01:01:01.561Z,10.0
2017-09-16T01:02:04.512Z,10.0
2017-09-16T01:03:06.866Z,10.1
2017-09-16T01:04:09.242Z,10.0
2017-09-16T01:05:12.188Z,9.9
2017-09-16T01:06:15.118Z,10.1
2017-09-16T01:07:18.189Z,10.0
2017-09-16T01:08:20.541Z,9.9
2017-09-16T01:09:22.950Z,10.0
2017-09-16T01:10:26.048Z,9.9
2017-09-16T01:11:28.328Z,9.9
2017-09-16T01:12:33.662Z,9.8
2017-09-16T01:13:36.601Z,9.8
2017-09-16T01:14:38.814Z,9.9
2017-09-16T01:15:41.016Z,9.8
2017-09-16T01:16:43.199Z,9.8
2017-09-16T01:17:45.355Z,9.8
2017-09-16T01:18:47.555Z,9.8
2017-09-16T01:19:49.859Z,9.8
2017-09-16T01:20:52.020Z,9.8
2017-09-16T01:21:54.172Z,9.8
2017-09-16T01:22:56.330Z,9.9
2017-09-16T01:23:58.513Z,10.0
2017-09-16T01:25:00.772Z,10.0
2017-09-16T01:26:03.533Z,10.1
2017-09-16T01:27:05.648Z,10.0
2017-09-16T01:28:07.941Z,9.9
2017-09-16T01:29:10.048Z,9.9
2017-09-16T01:30:12.304Z,9.9
2017-09-16T01:31:14.315Z,9.8
2017-09-16T01:32:16.494Z,9.8
2017-09-16T01:33:18.585Z,9.7
2017-09-16T01:34:20.703Z,9.8
2017-09-16T01:35:22.870Z,9.8
2017-09-16T01:36:24.977Z,9.9
2017-09-16T01:37:27.106Z,9.8
2017-09-16T01:38:29.300Z,9.7
2017-09-16T01:39:31.463Z,9.7
2017-09-16T01:40:33.660Z,9.7
2017-09-16T01:41:36.411Z,9.7
2017-09-16T01:42:38.505Z,9.7
2017-09-16T01:43:41.634Z,9.7
2017-09-16T01:44:43.714Z,9.6
2017-09-16T01:45:45.835Z,9.5
2017-09-16T01:46:47.913Z,9.5
2017-09-16T01:47:50.078Z,9.5
2017-09-16T01:48:52.185Z,9.5
2017-09-16T01:49:54.275Z,9.5
2017-09-16T01:50:56.271Z,9.5
2017-09-16T01:51:58.931Z,9.6
2017-09-16T01:53:01.029Z,9.6
2017-09-16T01:54:03.038Z,9.6
2017-09-16T01:55:05.133Z,9.5
2017-09-16T01:56:07.985Z,9.6
2017-09-16T01:57:09.947Z,9.6
2017-09-16T01:58:12.007Z,9.7
2017-09-16T01:59:14.813Z,9.7
2017-09-16T02:00:16.887Z,9.7
2017-09-16T02:01:19.025Z,9.8
2017-09-16T02:02:21.118Z,9.7
2017-09-16T02:03:23.950Z,9.7
2017-09-16T02:04:25.950Z,9.6
2017-09-16T02:05:27.926Z,9.7
2017-09-16T02:06:29.917Z,9.7
2017-09-16T02:07:31.990Z,9.7
2017-09-16T02:08:34.061Z,9.7
2017-09-16T02:09:36.160Z,9.6
2017-09-16T02:10:38.186Z,9.7
2017-09-16T02:11:40.165Z,9.7
2017-09-16T02:12:44.967Z,9.7
2017-09-16T02:13:46.953Z,9.6
2017-09-16T02:14:48.969Z,9.5
2017-09-16T02:15:50.887Z,9.6
2017-09-16T02:16:52.840Z,9.5
2017-09-16T02:17:54.738Z,9.4
2017-09-16T02:18:56.793Z,9.5
2017-09-16T02:19:58.753Z,9.3
2017-09-16T02:21:00.760Z,9.4
2017-09-16T02:22:03.435Z,9.3
2017-09-16T02:23:06.315Z,9.4
2017-09-16T02:24:08.915Z,9.3
2017-09-16T02:25:10.859Z,9.2
2017-09-16T02:26:12.911Z,9.3
2017-09-16T02:27:14.904Z,9.3
2017-09-16T02:28:17.908Z,9.3
2017-09-16T02:29:20.969Z,9.4
2017-09-16T02:30:23.018Z,9.4
2017-09-16T02:31:25.046Z,9.4
2017-09-16T02:32:27.109Z,9.3
2017-09-16T02:33:29.077Z,9.3
2017-09-16T02:34:31.817Z,9.3
2017-09-16T02:35:33.836Z,9.3
2017-09-16T02:36:35.793Z,9.3
2017-09-16T02:37:37.754Z,9.2
2017-09-16T02:38:39.778Z,9.2
2017-09-16T02:39:41.990Z,9.2
2017-09-16T02:40:43.999Z,9.3
2017-09-16T02:41:46.047Z,9.3
2017-09-16T02:42:48.968Z,9.4
2017-09-16T02:43:51.043Z,9.4
2017-09-16T02:44:53.164Z,9.3
2017-09-16T02:45:55.149Z,9.4
2017-09-16T02:46:57.301Z,9.3
2017-09-16T02:47:59.381Z,9.2
2017-09-16T02:49:02.431Z,9.2
2017-09-16T02:50:04.391Z,9.2
2017-09-16T02:51:07.490Z,9.3
2017-09-16T02:52:12.404Z,9.3
2017-09-16T02:53:14.483Z,9.2
2017-09-16T02:54:16.535Z,9.2
2017-09-16T02:55:19.531Z,9.3
2017-09-16T02:56:22.435Z,9.4
2017-09-16T02:57:24.464Z,9.5
2017-09-16T02:58:26.527Z,9.6
2017-09-16T02:59:28.589Z,9.6
2017-09-16T03:00:30.660Z,9.6
2017-09-16T03:01:32.781Z,9.6
2017-09-16T03:02:34.845Z,9.4
2017-09-16T03:03:36.986Z,9.4
2017-09-16T03:04:39.931Z,9.3
2017-09-16T03:05:42.015Z,9.3
2017-09-16T03:06:44.054Z,9.3
2017-09-16T03:07:46.099Z,9.2
2017-09-16T03:08:48.171Z,9.2
2017-09-16T03:09:49.913Z,9.1
2017-09-16T03:10:52.573Z,9.1
2017-09-16T03:11:54.264Z,9.1
2017-09-16T03:12:55.955Z,9.1
2017-09-16T03:13:57.651Z,9.2
2017-09-16T03:14:59.344Z,9.3
2017-09-16T03:16:01.054Z,9.3
2017-09-16T03:17:05.592Z,9.3
2017-09-16T03:18:07.282Z,9.3
2017-09-16T03:19:08.989Z,9.3
2017-09-16T03:20:10.678Z,9.2
2017-09-16T03:21:13.069Z,9.3
2017-09-16T03:22:14.794Z,9.4
2017-09-16T03:23:17.115Z,9.3
2017-09-16T03:24:18.788Z,9.5
2017-09-16T03:25:20.494Z,9.4
2017-09-16T03:26:22.176Z,9.4
2017-09-16T03:27:23.840Z,9.4
2017-09-16T03:28:25.546Z,9.3
2017-09-16T03:29:28.088Z,9.4
2017-09-16T03:30:29.793Z,9.3
2017-09-16T03:31:31.472Z,9.1
2017-09-16T03:32:33.180Z,9.1
2017-09-16T03:33:34.877Z,9.1
2017-09-16T03:34:36.574Z,9.1
2017-09-16T03:35:41.082Z,9.1
2017-09-16T03:36:42.793Z,9.1
2017-09-16T03:37:45.104Z,9.2
2017-09-16T03:38:46.781Z,9.1
2017-09-16T03:39:51.092Z,9.2
2017-09-16T03:40:52.777Z,9.2
2017-09-16T03:41:55.114Z,9.2
2017-09-16T03:42:57.564Z,9.3
2017-09-16T03:43:59.255Z,9.3
2017-09-16T03:45:00.921Z,9.5
2017-09-16T03:46:03.580Z,9.4
2017-09-16T03:47:05.252Z,9.5
2017-09-16T03:48:06.950Z,9.4
2017-09-16T03:49:15.615Z,9.3
2017-09-16T03:50:17.316Z,9.3
2017-09-16T03:51:18.989Z,9.3
2017-09-16T03:52:23.583Z,9.3
2017-09-16T03:53:25.298Z,9.3
2017-09-16T03:54:27.005Z,9.3
2017-09-16T03:55:28.726Z,9.4
2017-09-16T03:56:30.427Z,9.4
2017-09-16T03:57:32.098Z,9.5
2017-09-16T03:58:33.765Z,9.4
2017-09-16T03:59:35.449Z,9.5
2017-09-16T04:00:37.105Z,9.3
2017-09-16T04:01:41.571Z,9.3
2017-09-16T04:02:43.254Z,9.3
2017-09-16T04:03:44.967Z,9.2
2017-09-16T04:04:47.589Z,9.2
2017-09-16T04:05:49.302Z,9.1
2017-09-16T04:06:51.005Z,9.1
2017-09-16T04:07:52.727Z,9.2
2017-09-16T04:08:54.418Z,9.2
2017-09-16T04:09:57.113Z,9.1
2017-09-16T04:10:58.776Z,9.1
2017-09-16T04:12:00.450Z,9.0
2017-09-16T04:13:02.128Z,9.0
2017-09-16T04:14:03.803Z,9.0
2017-09-16T04:15:05.484Z,8.9
2017-09-16T04:16:07.180Z,9.0
2017-09-16T04:17:08.876Z,9.0
2017-09-16T04:18:10.542Z,9.0
2017-09-16T04:19:12.234Z,9.1
2017-09-16T04:20:13.873Z,9.0
2017-09-16T04:21:16.071Z,9.1
2017-09-16T04:22:17.720Z,9.1
2017-09-16T04:23:19.358Z,9.1
2017-09-16T04:24:21.570Z,9.0
2017-09-16T04:25:23.215Z,8.9
2017-09-16T04:26:24.847Z,8.9
2017-09-16T04:27:27.047Z,8.8
2017-09-16T04:28:28.720Z,8.8
2017-09-16T04:29:31.046Z,8.8
2017-09-16T04:30:32.709Z,8.7
2017-09-16T04:31:35.039Z,8.7
2017-09-16T04:32:37.541Z,8.7
2017-09-16T04:33:39.177Z,8.7
2017-09-16T04:34:40.814Z,8.7
2017-09-16T04:35:42.443Z,8.6
2017-09-16T04:36:44.069Z,8.7
2017-09-16T04:37:46.543Z,8.7
2017-09-16T04:38:48.179Z,8.8
2017-09-16T04:39:49.818Z,8.8
2017-09-16T04:40:51.445Z,8.8
2017-09-16T04:41:54.041Z,8.9
2017-09-16T04:42:55.675Z,8.9
2017-09-16T04:43:57.307Z,8.9
2017-09-16T04:44:58.937Z,8.9
2017-09-16T04:46:01.540Z,9.1
2017-09-16T04:47:04.039Z,9.0
2017-09-16T04:48:05.668Z,9.1
2017-09-16T04:49:07.307Z,9.0
2017-09-16T04:50:11.547Z,9.1
2017-09-16T04:51:13.168Z,9.2
2017-09-16T04:52:15.543Z,9.2
2017-09-16T04:53:17.175Z,9.1
2017-09-16T04:54:18.812Z,9.0
2017-09-16T04:55:20.444Z,9.0
2017-09-16T04:56:22.075Z,9.0
2017-09-16T04:57:23.712Z,8.9
2017-09-16T04:58:25.344Z,8.9
2017-09-16T04:59:26.975Z,8.9
2017-09-16T05:00:28.605Z,8.8
2017-09-16T05:01:30.241Z,8.9
2017-09-16T05:02:31.869Z,8.8
2017-09-16T05:03:33.501Z,8.8
2017-09-16T05:04:35.132Z,8.9
2017-09-16T05:05:36.763Z,8.9
2017-09-16T05:06:38.392Z,8.8
2017-09-16T05:07:40.021Z,8.8
2017-09-16T05:08:44.548Z,8.9
2017-09-16T05:09:46.195Z,8.8
2017-09-16T05:10:47.857Z,8.8
2017-09-16T05:11:49.489Z,8.9
2017-09-16T05:12:54.052Z,8.8
2017-09-16T05:13:55.687Z,8.8
2017-09-16T05:14:57.322Z,8.9
2017-09-16T05:15:58.964Z,8.8
2017-09-16T05:17:00.606Z,8.8
2017-09-16T05:18:02.248Z,8.8
2017-09-16T05:19:10.556Z,8.8
2017-09-16T05:20:12.176Z,8.7
2017-09-16T05:21:13.816Z,8.8
2017-09-16T05:22:16.053Z,8.8
2017-09-16T05:23:17.736Z,8.8
2017-09-16T05:24:19.376Z,8.7
2017-09-16T05:25:21.012Z,8.8
2017-09-16T05:26:22.650Z,8.7
2017-09-16T05:27:24.291Z,8.8
2017-09-16T05:28:25.925Z,8.9
2017-09-16T05:29:30.077Z,8.9
2017-09-16T05:30:31.715Z,8.9
2017-09-16T05:31:33.350Z,9.0
2017-09-16T05:32:49.560Z,8.9
2017-09-16T05:33:52.058Z,9.0
2017-09-16T05:34:53.689Z,9.0
2017-09-16T05:35:55.322Z,9.1
2017-09-16T05:36:56.952Z,9.1
2017-09-16T05:37:58.592Z,9.0
2017-09-16T05:39:00.225Z,8.9
2017-09-16T05:40:01.853Z,9.1
2017-09-16T05:41:03.493Z,9.1
2017-09-16T05:42:05.119Z,9.1
2017-09-16T05:43:06.755Z,9.2
2017-09-16T05:44:08.393Z,9.2
2017-09-16T05:45:10.024Z,9.1
2017-09-16T05:46:12.564Z,9.1
2017-09-16T05:47:14.198Z,9.2
2017-09-16T05:48:15.828Z,9.1
2017-09-16T05:49:17.472Z,9.2
2017-09-16T05:50:19.106Z,9.1
2017-09-16T05:51:20.736Z,9.1
2017-09-16T05:52:22.370Z,9.1
2017-09-16T05:53:24.044Z,9.1
2017-09-16T05:54:25.682Z,9.1
2017-09-16T05:55:27.312Z,9.1
2017-09-16T05:56:28.944Z,9.2
2017-09-16T05:57:30.580Z,9.2
2017-09-16T05:59:33.921Z,9.4
2017-09-16T06:00:35.605Z,9.5
2017-09-16T06:01:37.336Z,9.6
2017-09-16T06:02:39.051Z,9.7
2017-09-16T06:03:42.615Z,9.7
2017-09-16T06:04:44.264Z,9.8
2017-09-16T06:05:45.944Z,9.7
2017-09-16T06:06:47.691Z,9.8
2017-09-16T06:07:49.415Z,9.8
2017-09-16T06:08:51.173Z,9.8
2017-09-16T06:09:52.890Z,9.8
2017-09-16T06:10:54.596Z,9.8
2017-09-16T06:11:56.265Z,9.7
2017-09-16T06:12:57.984Z,9.7
2017-09-16T06:13:59.717Z,9.7
2017-09-16T06:15:01.406Z,9.7
2017-09-16T06:16:03.106Z,9.7
2017-09-16T06:17:04.838Z,9.8
2017-09-16T06:18:06.538Z,9.8
2017-09-16T06:19:09.171Z,9.8
2017-09-16T06:20:10.889Z,9.9
2017-09-16T06:21:12.575Z,10.1
2017-09-16T06:22:14.277Z,10.1
2017-09-16T06:23:15.956Z,10.1
2017-09-16T06:24:17.649Z,10.2
2017-09-16T06:25:19.460Z,10.1
2017-09-16T06:26:21.168Z,10.1
2017-09-16T06:27:22.869Z,10.1
2017-09-16T06:28:24.538Z,10.2
2017-09-16T06:29:26.280Z,10.3
2017-09-16T06:30:27.985Z,10.3
2017-09-16T06:31:29.690Z,10.3
2017-09-16T06:32:31.392Z,10.2
2017-09-16T06:33:33.073Z,10.4
2017-09-16T06:34:34.767Z,10.4
2017-09-16T06:35:36.451Z,10.4
2017-09-16T06:36:38.096Z,10.4
2017-09-16T06:37:39.865Z,10.4
2017-09-16T06:38:41.589Z,10.6
2017-09-16T06:39:44.153Z,10.6
2017-09-16T06:40:45.828Z,10.7
2017-09-16T06:41:48.129Z,10.6
2017-09-16T06:42:49.842Z,10.7
2017-09-16T06:43:51.646Z,10.6
2017-09-16T06:44:53.304Z,10.5
2017-09-16T06:45:57.652Z,10.6
2017-09-16T06:46:59.331Z,10.7
2017-09-16T06:48:01.044Z,10.9
2017-09-16T06:49:02.775Z,11.0
2017-09-16T06:50:07.206Z,11.1
2017-09-16T06:51:08.921Z,11.1
2017-09-16T06:52:10.573Z,11.1
2017-09-16T06:53:12.260Z,11.1
2017-09-16T06:54:13.951Z,11.4
2017-09-16T06:55:15.615Z,11.7
2017-09-16T06:56:17.458Z,11.7
2017-09-16T06:57:19.145Z,11.8
2017-09-16T06:58:20.844Z,11.9
2017-09-16T06:59:22.544Z,12.0
2017-09-16T07:00:24.324Z,12.0
2017-09-16T07:01:26.014Z,11.9
2017-09-16T07:02:27.743Z,12.1
2017-09-16T07:03:29.529Z,12.4
2017-09-16T07:04:31.304Z,12.5
2017-09-16T07:05:33.693Z,12.7
2017-09-16T07:06:36.194Z,12.8
2017-09-16T07:07:38.286Z,12.9
2017-09-16T07:08:40.354Z,12.7
2017-09-16T07:09:43.525Z,12.6
2017-09-16T07:10:45.557Z,12.5
2017-09-16T07:11:47.697Z,12.5
2017-09-16T07:12:50.039Z,12.3
2017-09-16T07:13:52.514Z,12.4
2017-09-16T07:14:54.545Z,12.3
2017-09-16T07:15:56.783Z,12.4
2017-09-16T07:16:59.281Z,12.5
2017-09-16T07:18:01.511Z,12.7
2017-09-16T07:19:04.874Z,12.9
2017-09-16T07:20:07.015Z,13.0
2017-09-16T07:21:09.759Z,13.1
2017-09-16T07:22:12.154Z,13.0
2017-09-16T07:23:14.654Z,13.1
2017-09-16T07:24:17.534Z,13.1
2017-09-16T07:25:19.314Z,12.8
2017-09-16T07:26:21.667Z,12.5
2017-09-16T07:27:27.035Z,12.7
2017-09-16T07:28:29.300Z,12.9
2017-09-16T07:29:32.325Z,12.9
2017-09-16T07:30:37.001Z,12.9
2017-09-16T07:31:40.215Z,13.0
2017-09-16T07:32:44.413Z,12.9
2017-09-16T07:33:48.611Z,13.0
2017-09-16T07:34:52.981Z,13.3
2017-09-16T07:35:56.519Z,13.7
2017-09-16T07:36:59.923Z,13.3
2017-09-16T07:38:03.573Z,13.0
2017-09-16T07:40:16.313Z,13.1
2017-09-16T07:41:20.453Z,13.1
2017-09-16T07:42:25.992Z,13.0
2017-09-16T07:43:28.691Z,13.0
2017-09-16T07:44:37.758Z,13.1
2017-09-16T07:45:44.338Z,13.0
2017-09-16T07:46:52.472Z,13.0
2017-09-16T07:47:59.083Z,13.2
2017-09-16T07:49:08.271Z,13.4
2017-09-16T07:50:14.210Z,13.2
2017-09-16T07:51:19.732Z,13.1
2017-09-16T07:52:26.896Z,13.2
2017-09-16T07:53:37.007Z,13.3
2017-09-16T07:54:46.260Z,13.4
2017-09-16T07:55:50.972Z,13.4
2017-09-16T07:56:57.187Z,13.5
2017-09-16T07:59:10.475Z,13.6
2017-09-16T08:00:14.391Z,13.9
2017-09-16T08:01:17.877Z,13.9
2017-09-16T08:02:20.233Z,14.1
2017-09-16T08:03:22.548Z,14.2
2017-09-16T08:04:25.933Z,14.3
2017-09-16T08:05:30.456Z,14.4
2017-09-16T08:07:45.175Z,14.1
2017-09-16T08:09:59.265Z,14.5
2017-09-16T08:11:03.194Z,14.5
2017-09-16T08:12:07.561Z,14.4
2017-09-16T08:13:10.278Z,14.5
2017-09-16T08:14:13.241Z,14.9
2017-09-16T08:15:17.053Z,15.3
2017-09-16T08:16:21.066Z,15.6
2017-09-16T08:17:23.250Z,15.6
2017-09-16T08:18:25.073Z,15.5
2017-09-16T08:19:26.921Z,15.0
2017-09-16T08:20:29.036Z,14.8
2017-09-16T08:21:31.782Z,14.7
2017-09-16T08:22:34.715Z,14.5
2017-09-16T08:23:36.798Z,14.7
2017-09-16T08:24:39.307Z,14.6
2017-09-16T08:25:42.021Z,14.8
2017-09-16T08:26:43.887Z,14.7
2017-09-16T08:27:45.946Z,14.7
2017-09-16T08:28:47.809Z,14.5
2017-09-16T08:29:49.780Z,14.7
2017-09-16T08:30:51.539Z,14.8
2017-09-16T08:31:53.585Z,15.0
2017-09-16T08:32:55.339Z,15.1
2017-09-16T08:33:57.012Z,15.2
2017-09-16T08:34:59.030Z,15.4
2017-09-16T08:36:01.626Z,15.5
2017-09-16T08:37:03.917Z,15.7
2017-09-16T08:38:06.573Z,15.8
2017-09-16T08:39:08.542Z,15.7
2017-09-16T08:40:10.368Z,15.9
2017-09-16T08:41:12.176Z,15.9
2017-09-16T08:42:13.835Z,15.7
2017-09-16T08:43:15.820Z,15.6
2017-09-16T08:44:17.974Z,15.8
2017-09-16T08:45:20.100Z,15.8
2017-09-16T08:46:22.199Z,16.0
2017-09-16T08:47:25.024Z,16.0
2017-09-16T08:48:27.766Z,15.7
2017-09-16T08:49:29.972Z,15.7
2017-09-16T08:50:32.261Z,15.7
2017-09-16T08:51:34.954Z,15.8
2017-09-16T08:52:39.394Z,15.8
2017-09-16T08:53:41.386Z,15.8
2017-09-16T08:54:43.190Z,15.6
2017-09-16T08:55:44.985Z,15.7
2017-09-16T08:56:47.492Z,15.3
2017-09-16T08:57:49.615Z,15.3
2017-09-16T08:58:52.025Z,15.3
2017-09-16T08:59:53.834Z,15.2
2017-09-16T09:00:55.722Z,15.2
2017-09-16T09:01:57.399Z,15.5
2017-09-16T09:03:00.313Z,15.7
2017-09-16T09:04:02.871Z,15.8
2017-09-16T09:05:04.668Z,16.1
2017-09-16T09:06:06.353Z,16.2
2017-09-16T09:07:08.138Z,16.3
2017-09-16T09:08:09.896Z,16.4
2017-09-16T09:09:11.763Z,16.4
2017-09-16T09:10:13.514Z,16.4
2017-09-16T09:11:15.873Z,16.2
2017-09-16T09:12:19.126Z,15.7
2017-09-16T09:13:20.993Z,15.3
2017-09-16T09:14:22.937Z,15.2
2017-09-16T09:15:24.683Z,15.2
2017-09-16T09:16:26.856Z,15.7
2017-09-16T09:17:28.798Z,16.0
2017-09-16T09:18:31.347Z,16.3
2017-09-16T09:19:33.662Z,16.3
2017-09-16T09:20:36.095Z,16.3
2017-09-16T09:21:37.831Z,16.2
2017-09-16T09:22:39.740Z,16.5
2017-09-16T09:23:41.793Z,16.4
2017-09-16T09:24:43.584Z,16.3
2017-09-16T09:25:45.974Z,16.3
2017-09-16T09:26:48.559Z,16.3
2017-09-16T09:27:50.870Z,15.9
2017-09-16T09:28:53.227Z,15.7
2017-09-16T09:29:55.558Z,15.6
2017-09-16T09:30:57.858Z,15.4
2017-09-16T09:31:59.596Z,15.3
2017-09-16T09:33:01.383Z,15.3
2017-09-16T09:34:03.915Z,15.3
2017-09-16T09:35:05.841Z,15.3
2017-09-16T09:36:07.686Z,15.1
2017-09-16T09:37:10.147Z,15.1
2017-09-16T09:38:12.522Z,15.2
2017-09-16T09:39:20.980Z,15.2
2017-09-16T09:40:23.840Z,15.4
2017-09-16T09:41:25.785Z,15.2
2017-09-16T09:42:28.650Z,15.3
2017-09-16T09:43:32.010Z,15.5
2017-09-16T09:44:34.788Z,15.7
2017-09-16T09:45:37.828Z,16.0
2017-09-16T09:46:40.533Z,15.9
2017-09-16T09:47:42.786Z,15.8
2017-09-16T09:48:44.632Z,15.5
2017-09-16T09:49:46.289Z,15.4
2017-09-16T09:50:48.120Z,15.2
2017-09-16T09:51:49.841Z,15.5
2017-09-16T09:52:52.356Z,15.6
2017-09-16T09:53:54.582Z,15.8
2017-09-16T09:54:56.898Z,15.9
2017-09-16T09:55:58.676Z,16.2
2017-09-16T09:57:00.447Z,16.3
2017-09-16T09:58:02.151Z,16.3
2017-09-16T09:59:04.173Z,16.5
2017-09-16T10:00:05.834Z,16.5
2017-09-16T10:01:08.405Z,16.5
2017-09-16T10:02:10.898Z,16.3
2017-09-16T10:03:13.305Z,16.2
2017-09-16T10:04:16.439Z,16.2
2017-09-16T10:05:20.228Z,15.9
2017-09-16T10:06:22.678Z,16.0
2017-09-16T10:07:24.833Z,16.0
2017-09-16T10:08:27.149Z,16.2
2017-09-16T10:09:29.219Z,16.3
2017-09-16T10:10:31.961Z,16.3
2017-09-16T10:11:34.463Z,16.4
2017-09-16T10:12:36.693Z,16.7
2017-09-16T10:13:39.086Z,16.6
2017-09-16T10:14:41.466Z,16.4
2017-09-16T10:15:43.561Z,16.2
2017-09-16T10:16:46.494Z,16.0
2017-09-16T10:17:50.319Z,16.0
2017-09-16T10:18:51.979Z,15.8
2017-09-16T10:19:54.076Z,15.6
2017-09-16T10:20:57.717Z,15.7
2017-09-16T10:21:59.918Z,15.9
2017-09-16T10:23:02.376Z,15.9
2017-09-16T10:24:05.150Z,16.0
2017-09-16T10:25:07.647Z,16.3
2017-09-16T10:26:10.366Z,16.4
2017-09-16T10:27:12.350Z,16.5
2017-09-16T10:28:16.083Z,16.6
2017-09-16T10:29:19.040Z,16.7
2017-09-16T10:30:22.451Z,16.7
2017-09-16T10:31:26.914Z,16.8
2017-09-16T10:32:29.722Z,16.9
2017-09-16T10:33:34.663Z,16.9
2017-09-16T10:34:37.443Z,17.0
2017-09-16T10:35:40.351Z,17.0
2017-09-16T10:36:42.787Z,17.4
2017-09-16T10:37:45.263Z,17.9
2017-09-16T10:38:47.921Z,18.7
2017-09-16T10:39:50.319Z,18.8
2017-09-16T10:40:52.609Z,19.0
2017-09-16T10:41:55.714Z,19.1
2017-09-16T10:42:58.153Z,19.5
2017-09-16T10:44:00.323Z,19.8
2017-09-16T10:45:03.094Z,20.3
2017-09-16T10:46:04.815Z,19.1
2017-09-16T10:47:07.394Z,19.0
2017-09-16T10:48:10.407Z,18.8
2017-09-16T10:49:15.256Z,18.6
2017-09-16T10:50:18.065Z,18.1
2017-09-16T10:51:21.331Z,18.4
2017-09-16T10:52:23.413Z,18.8
2017-09-16T10:53:25.643Z,18.6
2017-09-16T10:54:28.052Z,18.0
2017-09-16T10:55:29.823Z,17.9
2017-09-16T10:56:31.647Z,17.3
2017-09-16T10:57:34.159Z,17.0
2017-09-16T10:58:36.587Z,17.2
2017-09-16T10:59:38.630Z,17.0
2017-09-16T11:00:40.864Z,16.7
2017-09-16T11:01:44.288Z,16.3
2017-09-16T11:02:46.200Z,16.4
2017-09-16T11:03:48.104Z,16.1
2017-09-16T11:04:50.802Z,16.2
2017-09-16T11:05:54.881Z,16.3
2017-09-16T11:06:58.890Z,17.2
2017-09-16T11:08:00.706Z,18.1
2017-09-16T11:09:02.426Z,19.1
2017-09-16T11:10:04.247Z,18.1
2017-09-16T11:11:06.168Z,17.5
2017-09-16T11:12:08.485Z,17.2
2017-09-16T11:13:10.888Z,17.0
2017-09-16T11:14:12.829Z,16.6
2017-09-16T11:15:15.103Z,16.5
2017-09-16T11:16:18.949Z,16.4
2017-09-16T11:17:21.060Z,16.3
2017-09-16T11:18:23.284Z,17.9
2017-09-16T11:19:25.545Z,19.5
2017-09-16T11:20:28.736Z,19.7
2017-09-16T11:22:42.412Z,20.6
2017-09-16T11:23:44.047Z,19.2
2017-09-16T11:24:45.685Z,18.7
2017-09-16T11:25:47.363Z,18.5
2017-09-16T11:26:49.001Z,18.8
2017-09-16T11:27:50.673Z,19.4
2017-09-16T11:28:52.277Z,19.9
2017-09-16T11:29:53.926Z,19.7
2017-09-16T11:30:55.578Z,19.1
2017-09-16T11:31:57.233Z,20.0
2017-09-16T11:32:58.956Z,20.4
2017-09-16T11:34:00.610Z,20.6
2017-09-16T11:35:02.288Z,20.5
2017-09-16T11:36:04.037Z,20.0
2017-09-16T11:37:05.789Z,19.5
2017-09-16T11:38:07.538Z,20.2
2017-09-16T11:39:09.189Z,20.5
2017-09-16T11:40:10.977Z,20.4
2017-09-16T11:41:12.671Z,19.5
2017-09-16T11:42:14.543Z,18.6
2017-09-16T11:43:17.473Z,18.2
2017-09-16T11:44:19.628Z,18.1
2017-09-16T11:45:21.718Z,19.3
2017-09-16T11:46:23.753Z,20.1
2017-09-16T11:47:26.062Z,21.2
2017-09-16T11:48:27.983Z,21.8
2017-09-16T11:49:29.898Z,22.9
2017-09-16T11:50:31.722Z,23.1
2017-09-16T11:51:33.490Z,22.6
2017-09-16T11:52:35.679Z,22.9
2017-09-16T11:53:37.826Z,23.4
2017-09-16T11:54:39.607Z,23.7
2017-09-16T11:55:41.446Z,23.4
2017-09-16T11:56:43.207Z,23.0
2017-09-16T11:57:44.989Z,23.6
2017-09-16T11:58:46.806Z,23.4
2017-09-16T11:59:48.607Z,23.2
2017-09-16T12:00:50.412Z,22.6
2017-09-16T12:01:52.572Z,22.1
2017-09-16T12:02:54.609Z,21.5
2017-09-16T12:03:56.880Z,21.5
2017-09-16T12:04:59.032Z,22.1
2017-09-16T12:06:01.054Z,20.5
2017-09-16T12:07:03.861Z,19.6
2017-09-16T12:08:06.542Z,19.1
2017-09-16T12:09:09.029Z,19.1
2017-09-16T12:10:11.589Z,19.2
2017-09-16T12:11:13.601Z,21.5
2017-09-16T12:12:15.879Z,22.6
2017-09-16T12:13:18.222Z,24.0
2017-09-16T12:14:20.789Z,23.8
2017-09-16T12:15:23.557Z,25.4
2017-09-16T12:16:25.715Z,25.2
2017-09-16T12:17:28.297Z,24.4
2017-09-16T12:18:30.470Z,24.7
2017-09-16T12:19:32.482Z,25.2
2017-09-16T12:20:34.582Z,23.3
2017-09-16T12:21:37.007Z,24.1
2017-09-16T12:22:38.793Z,23.5
2017-09-16T12:23:40.669Z,22.7
2017-09-16T12:24:42.498Z,21.0
2017-09-16T12:25:44.614Z,20.2
2017-09-16T12:26:46.443Z,19.4
2017-09-16T12:27:48.611Z,19.4
2017-09-16T12:28:50.510Z,19.2
2017-09-16T12:29:52.728Z,20.9
2017-09-16T12:30:54.773Z,20.5
2017-09-16T12:31:56.598Z,20.7
2017-09-16T12:32:58.991Z,19.7
2017-09-16T12:34:01.364Z,18.9
2017-09-16T12:35:03.574Z,18.6
2017-09-16T12:36:05.877Z,18.2
2017-09-16T12:37:07.891Z,17.8
2017-09-16T12:38:10.065Z,17.8
2017-09-16T12:39:12.881Z,17.8
2017-09-16T12:40:15.366Z,17.7
2017-09-16T12:41:17.139Z,17.6
2017-09-16T12:42:19.442Z,17.7
2017-09-16T12:43:21.766Z,17.5
2017-09-16T12:44:24.138Z,17.6
2017-09-16T12:45:26.068Z,17.5
2017-09-16T12:46:27.820Z,17.5
2017-09-16T12:47:30.176Z,17.6
2017-09-16T12:48:32.110Z,17.6
2017-09-16T12:49:34.352Z,17.7
2017-09-16T12:50:36.211Z,19.5
2017-09-16T12:51:38.055Z,21.8
2017-09-16T12:52:40.083Z,22.1
2017-09-16T12:53:42.148Z,23.4
2017-09-16T12:54:43.922Z,24.4
2017-09-16T12:55:46.159Z,25.3
2017-09-16T12:56:48.274Z,26.0
2017-09-16T12:57:50.394Z,26.0
2017-09-16T12:58:52.464Z,26.0
2017-09-16T12:59:54.680Z,26.3
2017-09-16T13:00:56.449Z,26.8
2017-09-16T13:01:58.252Z,26.7
2017-09-16T13:03:00.075Z,26.3
2017-09-16T13:04:01.916Z,26.2
2017-09-16T13:05:03.756Z,25.7
2017-09-16T13:06:05.589Z,25.2
2017-09-16T13:07:07.528Z,25.2
2017-09-16T13:08:09.302Z,24.8
2017-09-16T13:09:11.038Z,24.5
2017-09-16T13:10:12.752Z,25.1
2017-09-16T13:11:14.583Z,25.1
2017-09-16T13:12:16.381Z,25.6
2017-09-16T13:13:18.342Z,25.5
2017-09-16T13:14:20.098Z,25.3
2017-09-16T13:15:21.855Z,26.0
2017-09-16T13:16:24.545Z,25.6
2017-09-16T13:17:26.448Z,25.5
2017-09-16T13:18:28.373Z,25.8
2017-09-16T13:19:30.213Z,26.4
2017-09-16T13:20:31.990Z,26.3
2017-09-16T13:21:34.145Z,25.7
2017-09-16T13:22:36.697Z,24.7
2017-09-16T13:23:38.691Z,25.1
2017-09-16T13:24:40.478Z,24.7
2017-09-16T13:25:42.361Z,24.6
2017-09-16T13:26:44.181Z,24.3
2017-09-16T13:27:45.951Z,23.7
2017-09-16T13:28:47.943Z,22.2
2017-09-16T13:29:49.767Z,21.5
2017-09-16T13:30:51.836Z,24.3
2017-09-16T13:31:53.627Z,26.1
2017-09-16T13:32:55.641Z,26.9
2017-09-16T13:33:57.704Z,25.8
2017-09-16T13:34:59.522Z,25.6
2017-09-16T13:36:01.240Z,25.8
2017-09-16T13:37:03.029Z,25.7
2017-09-16T13:38:05.160Z,25.3
2017-09-16T13:39:07.436Z,26.1
2017-09-16T13:40:09.351Z,23.1
2017-09-16T13:41:11.101Z,21.0
2017-09-16T13:42:12.938Z,19.8
2017-09-16T13:43:14.731Z,19.1
2017-09-16T13:44:16.973Z,18.7
2017-09-16T13:45:18.782Z,18.6
2017-09-16T13:46:20.578Z,18.6
2017-09-16T13:47:22.355Z,19.3
2017-09-16T13:48:24.181Z,20.0
2017-09-16T13:49:25.981Z,19.6
2017-09-16T13:50:27.824Z,21.0
2017-09-16T13:51:29.970Z,22.9
2017-09-16T13:52:32.580Z,24.4
2017-09-16T13:53:34.882Z,23.9
2017-09-16T13:54:36.981Z,23.6
2017-09-16T13:55:38.809Z,24.9
2017-09-16T13:56:40.592Z,22.9
2017-09-16T13:57:42.584Z,23.5
2017-09-16T13:58:44.305Z,24.2
2017-09-16T13:59:46.084Z,23.5
2017-09-16T14:00:48.618Z,22.2
2017-09-16T14:01:50.533Z,21.2
2017-09-16T14:02:52.328Z,22.2
2017-09-16T14:03:53.979Z,23.6
2017-09-16T14:04:55.705Z,24.5
2017-09-16T14:05:57.345Z,24.2
2017-09-16T14:06:58.994Z,22.1